Kazime Ana — TCPT8 — position and weather

sailwx.info

Track history (hours):
 
Tides and Currents Weather Stations Pressure Air Temp Water Temp Dewpoint Dewpoint Depression Visibility Wind Speed Wind Dir Waves Ship Positions

Kazime Ana

Last reported at 2015-May-29 21:24 UTC. Time now 2015-May-29 22:26 UTC.
Position N 40°57' E 028°40'.

Length 115 m; draft 3.9 m.

Type: Cargo ship. MMSI: 271001019.

Date/timePositionNaut miles runAvg speedWind from/ knotsBaromVisibWave heightAir tempDewpointWater temp
2015-May-29 21:24N 40°57' E 028°40'  
2015-May-26 13:13N 40°40' E 028°37'811.7
2015-May-26 12:33N 40°41' E 028°47'1211.7
2015-May-26 11:33N 40°43' E 029°02'1111.1
2015-May-26 10:34N 40°44' E 029°17'1110.8
2015-May-26 09:31N 40°45' E 029°32'3 0.1
2015-May-24 13:29N 40°45' E 029°28'8 8.6
2015-May-24 12:32N 40°43' E 029°18'1010.2
2015-May-24 11:33N 40°42' E 029°04'1010.2
2015-May-24 10:33N 40°41' E 028°51'  
Track history (hours):
 
Tides and Currents Weather Stations Pressure Air Temp Water Temp Dewpoint Dewpoint Depression Visibility Wind Speed Wind Dir Waves Ship Positions

Kazime Ana

Last reported at 2015-May-29 21:24 UTC. Time now 2015-May-29 22:26 UTC.
Position N 40°57' E 028°40'.

Length 115 m; draft 3.9 m.

Type: Cargo ship. MMSI: 271001019.

Date/timePositionNaut miles runAvg speedWind from/ knotsBaromVisibWave heightAir tempDewpointWater temp
2015-May-29 21:24N 40°57' E 028°40'  
2015-May-26 13:13N 40°40' E 028°37'811.7
2015-May-26 12:33N 40°41' E 028°47'1211.7
2015-May-26 11:33N 40°43' E 029°02'1111.1
2015-May-26 10:34N 40°44' E 029°17'1110.8
2015-May-26 09:31N 40°45' E 029°32'3 0.1
2015-May-24 13:29N 40°45' E 029°28'8 8.6
2015-May-24 12:32N 40°43' E 029°18'1010.2
2015-May-24 11:33N 40°42' E 029°04'1010.2
2015-May-24 10:33N 40°41' E 028°51'  

Dump ship's entire track history